Time;durP1;ratioP1;P1;durP2;ratioP2;P2;SDS_P1;SDS_P2;PMS_P1;PMS_P2;Temp;Humidity;BMP_temperature;BMP_pressure;BME280_temperature;BME280_humidity;BME280_pressure;Samples;Min_cycle;Max_cycle;Signal;HPM_P1;HPM_P2
2022/10/16 00:01:31;;;;;;;1.50;1.40;;;19.50;58.20;;;;;;20705;6733;315244;-87
2022/10/16 00:04:07;;;;;;;2.22;1.30;;;19.60;57.80;;;;;;20717;6744;306341;-87
2022/10/16 00:06:44;;;;;;;1.90;1.10;;;19.70;57.40;;;;;;20812;6744;118895;-90
2022/10/16 00:09:20;;;;;;;2.08;1.40;;;19.40;57.90;;;;;;20757;6731;305107;-91
2022/10/16 00:11:56;;;;;;;3.27;1.27;;;19.40;57.90;;;;;;20863;6746;119120;-87
2022/10/16 00:14:31;;;;;;;1.53;1.43;;;19.20;58.40;;;;;;20857;6764;67745;-87
2022/10/16 00:17:07;;;;;;;2.00;1.17;;;18.80;59.20;;;;;;20708;6760;121236;-89
2022/10/16 00:19:42;;;;;;;1.57;1.10;;;18.60;59.90;;;;;;20887;6757;117189;-87
2022/10/16 00:22:18;;;;;;;2.77;1.50;;;18.30;60.40;;;;;;20891;6757;117009;-91
2022/10/16 00:24:55;;;;;;;1.17;1.10;;;18.20;61.00;;;;;;20874;6757;117999;-88
2022/10/16 00:27:30;;;;;;;1.33;1.23;;;18.00;61.40;;;;;;20707;6799;118867;-92
2022/10/16 00:30:08;;;;;;;1.60;1.50;;;17.80;61.70;;;;;;20599;6758;311486;-87
2022/10/16 00:32:43;;;;;;;1.30;1.20;;;18.10;61.40;;;;;;20834;6771;117109;-90
2022/10/16 00:35:18;;;;;;;1.50;1.27;;;18.10;61.40;;;;;;20586;6782;307638;-87
2022/10/16 00:37:54;;;;;;;1.77;1.30;;;18.30;60.60;;;;;;20690;6802;117271;-87
2022/10/16 00:40:31;;;;;;;1.83;1.43;;;18.30;60.80;;;;;;20600;6767;276942;-92
2022/10/16 00:43:08;;;;;;;1.65;1.17;;;18.40;60.20;;;;;;20607;6764;308703;-87
2022/10/16 00:45:46;;;;;;;1.60;1.23;;;18.70;59.60;;;;;;20658;6760;278257;-93
2022/10/16 00:48:31;;;;;;;1.00;0.93;;;18.90;58.90;;;;;;20872;6745;118455;-88
2022/10/16 00:50:58;;;;;;;1.30;0.90;;;18.40;60.10;;;;;;20885;6749;120364;-87
2022/10/16 00:53:34;;;;;;;1.30;1.20;;;18.40;60.10;;;;;;20726;6749;307218;-93
2022/10/16 00:56:09;;;;;;;0.97;0.97;;;18.50;59.70;;;;;;20821;6758;117595;-90
2022/10/16 00:58:45;;;;;;;2.78;1.30;;;18.40;60.10;;;;;;20621;6762;306470;-90
2022/10/16 01:01:20;;;;;;;3.20;1.30;;;18.50;59.80;;;;;;20625;6758;276776;-90
2022/10/16 01:03:57;;;;;;;1.20;1.10;;;18.70;60.00;;;;;;20860;6762;117113;-87
2022/10/16 01:06:37;;;;;;;1.50;1.40;;;18.60;59.70;;;;;;20508;6817;290175;-91
2022/10/16 01:09:36;;;;;;;1.20;1.20;;;18.60;59.60;;;;;;20676;6746;334067;-90
2022/10/16 01:12:12;;;;;;;1.50;1.17;;;18.80;59.00;;;;;;20833;6757;118219;-87
2022/10/16 01:14:57;;;;;;;3.40;1.23;;;18.50;59.50;;;;;;20757;6771;122386;-90
2022/10/16 01:17:39;;;;;;;1.40;1.30;;;18.20;60.40;;;;;;20449;6778;118077;-88
2022/10/16 01:20:32;;;;;;;3.30;1.40;;;17.90;61.20;;;;;;20602;6833;117387;-91
2022/10/16 01:23:24;;;;;;;2.00;1.47;;;17.70;61.80;;;;;;20853;6760;117047;-86
2022/10/16 01:26:29;;;;;;;1.70;1.37;;;17.50;62.20;;;;;;20764;6779;117996;-87
2022/10/16 01:29:11;;;;;;;3.55;1.35;;;17.40;62.70;;;;;;20621;6764;335217;-86
2022/10/16 01:31:47;;;;;;;1.47;1.37;;;17.70;62.20;;;;;;20912;6746;117855;-87
2022/10/16 01:34:25;;;;;;;2.30;1.50;;;17.80;62.10;;;;;;20639;6764;306934;-94
2022/10/16 01:37:02;;;;;;;1.40;1.40;;;18.30;60.80;;;;;;20493;6771;308733;-87
2022/10/16 01:39:37;;;;;;;2.50;1.40;;;18.30;60.80;;;;;;20842;6771;119433;-87
2022/10/16 01:42:13;;;;;;;1.80;1.30;;;18.10;60.90;;;;;;20875;6771;118085;-92
2022/10/16 01:44:48;;;;;;;1.43;1.33;;;17.80;61.50;;;;;;20848;6772;117019;-89
2022/10/16 01:47:24;;;;;;;1.60;1.20;;;17.60;62.30;;;;;;20490;6772;308685;-88
2022/10/16 01:50:00;;;;;;;1.60;1.50;;;17.80;62.00;;;;;;20756;6733;305954;-87
2022/10/16 01:52:46;;;;;;;1.47;1.30;;;18.10;61.10;;;;;;20665;6746;277349;-93
2022/10/16 01:55:12;;;;;;;1.57;1.30;;;18.40;60.30;;;;;;20737;6733;276629;-87
2022/10/16 01:57:48;;;;;;;2.73;1.40;;;18.60;59.70;;;;;;20797;6746;117763;-92
2022/10/16 02:00:23;;;;;;;2.10;1.17;;;18.40;60.10;;;;;;20787;6731;124111;-93
2022/10/16 02:02:59;;;;;;;2.30;1.30;;;18.10;60.90;;;;;;20886;6749;147014;-87
2022/10/16 02:05:51;;;;;;;1.27;1.27;;;17.80;61.70;;;;;;20875;6743;118154;-88
2022/10/16 02:08:28;;;;;;;0.93;0.93;;;17.60;62.40;;;;;;20784;6749;117451;-93
2022/10/16 02:11:02;;;;;;;1.20;1.20;;;17.50;63.00;;;;;;20831;6745;124082;-91
2022/10/16 02:13:48;;;;;;;1.57;1.13;;;17.40;63.40;;;;;;20838;6757;117460;-92
2022/10/16 02:16:25;;;;;;;1.50;1.23;;;17.30;63.80;;;;;;20559;6761;342683;-86
2022/10/16 02:19:00;;;;;;;2.05;1.27;;;17.60;63.30;;;;;;20578;6777;304591;-91
2022/10/16 02:21:38;;;;;;;1.40;1.30;;;18.00;62.10;;;;;;20926;6759;119262;-94
2022/10/16 02:24:18;;;;;;;1.20;1.10;;;18.00;62.10;;;;;;20946;6629;118236;-92
2022/10/16 02:27:09;;;;;;;1.37;1.10;;;17.80;62.60;;;;;;20601;6755;278214;-92
2022/10/16 02:29:39;;;;;;;2.43;1.40;;;18.00;62.00;;;;;;20822;6774;118963;-87
2022/10/16 02:32:18;;;;;;;2.50;1.30;;;18.10;62.00;;;;;;20634;6774;277550;-91
2022/10/16 02:34:54;;;;;;;1.50;1.30;;;18.10;61.50;;;;;;20509;6774;306698;-91
2022/10/16 02:37:29;;;;;;;3.50;1.30;;;18.40;61.20;;;;;;20433;6774;278905;-91
2022/10/16 02:40:05;;;;;;;2.92;1.50;;;18.70;60.70;;;;;;20593;6759;323566;-88
2022/10/16 02:42:41;;;;;;;2.20;1.30;;;18.80;60.40;;;;;;20791;6768;118277;-88
2022/10/16 02:45:18;;;;;;;2.43;1.23;;;18.70;60.90;;;;;;20852;6766;121376;-92
2022/10/16 02:47:53;;;;;;;1.50;1.40;;;18.30;61.60;;;;;;20600;6772;117494;-90
2022/10/16 02:50:29;;;;;;;1.80;1.33;;;18.00;62.30;;;;;;20637;6764;336530;-86
2022/10/16 02:53:04;;;;;;;2.63;1.20;;;18.20;62.30;;;;;;20810;6758;116920;-90
2022/10/16 02:55:46;;;;;;;1.40;1.30;;;18.10;62.40;;;;;;20661;6753;312775;-89
2022/10/16 02:58:15;;;;;;;1.55;1.45;;;18.30;61.50;;;;;;20674;6758;306107;-86
2022/10/16 03:00:51;;;;;;;3.47;1.30;;;18.60;60.90;;;;;;20862;6758;123635;-87
2022/10/16 03:03:28;;;;;;;1.27;1.27;;;18.50;61.20;;;;;;20881;6758;121182;-92
2022/10/16 03:06:04;;;;;;;1.60;1.20;;;18.20;61.80;;;;;;20836;6758;120855;-86
2022/10/16 03:08:39;;;;;;;1.30;1.20;;;18.00;62.50;;;;;;20899;6787;120209;-87
2022/10/16 03:11:16;;;;;;;1.48;1.27;;;17.70;62.90;;;;;;20729;6731;310400;-91
2022/10/16 03:13:52;;;;;;;1.70;1.43;;;17.90;62.00;;;;;;20884;6733;119098;-86
2022/10/16 03:16:28;;;;;;;2.77;1.43;;;17.90;62.00;;;;;;20607;6746;308532;-88
2022/10/16 03:19:04;;;;;;;1.57;1.47;;;18.10;61.40;;;;;;20882;6746;117201;-89
2022/10/16 03:21:39;;;;;;;1.30;1.20;;;18.10;61.60;;;;;;20693;6746;294381;-92
2022/10/16 03:24:15;;;;;;;1.60;1.13;;;18.20;61.20;;;;;;20950;6731;116981;-87
2022/10/16 03:26:53;;;;;;;1.10;1.10;;;18.10;61.50;;;;;;20751;6746;117990;-86
2022/10/16 03:29:29;;;;;;;2.03;1.40;;;17.90;62.10;;;;;;20886;6746;121563;-90
2022/10/16 03:32:04;;;;;;;2.40;1.03;;;17.70;62.70;;;;;;20880;6730;118484;-90
2022/10/16 03:34:45;;;;;;;2.78;1.45;;;17.50;63.30;;;;;;20746;6746;293421;-91
2022/10/16 03:37:15;;;;;;;1.47;1.33;;;17.70;63.40;;;;;;20701;6746;117841;-87
2022/10/16 03:39:51;;;;;;;3.78;1.40;;;17.80;63.10;;;;;;20697;6731;307583;-87
2022/10/16 03:42:26;;;;;;;2.27;1.40;;;17.90;62.60;;;;;;20909;6731;116891;-92
2022/10/16 03:45:02;;;;;;;2.40;1.35;;;17.90;62.70;;;;;;20750;6731;279424;-91
2022/10/16 03:47:49;;;;;;;1.80;1.35;;;18.10;62.20;;;;;;20964;6571;337155;-90
2022/10/16 03:50:15;;;;;;;3.07;1.40;;;18.30;61.60;;;;;;20581;6830;337662;-90
2022/10/16 03:52:41;;;;;;;2.53;1.47;;;18.50;60.90;;;;;;20595;6830;281884;-91
2022/10/16 03:55:06;;;;;;;2.33;1.40;;;18.70;60.40;;;;;;20849;6815;118220;-91
2022/10/16 03:57:32;;;;;;;2.20;1.70;;;18.50;60.80;;;;;;20634;6816;307709;-90
2022/10/16 03:59:58;;;;;;;1.17;1.17;;;18.30;61.90;;;;;;20851;6816;116968;-91
2022/10/16 04:02:24;;;;;;;1.95;1.30;;;18.30;61.20;;;;;;20612;6816;308498;-91
2022/10/16 04:04:49;;;;;;;3.65;1.12;;;18.40;61.00;;;;;;20569;6829;340370;-90
2022/10/16 04:07:15;;;;;;;2.27;1.30;;;18.50;60.70;;;;;;20762;6843;119743;-90
2022/10/16 04:09:41;;;;;;;4.00;1.20;;;18.10;61.60;;;;;;20763;6842;120691;-91
2022/10/16 04:12:08;;;;;;;1.52;1.20;;;18.20;61.40;;;;;;20593;6831;298773;-90
2022/10/16 04:14:35;;;;;;;1.83;1.40;;;18.20;61.40;;;;;;20557;6842;309094;-91
2022/10/16 04:17:00;;;;;;;1.50;1.40;;;18.40;60.80;;;;;;20675;6857;117800;-91
2022/10/16 04:19:26;;;;;;;1.45;1.33;;;18.30;61.10;;;;;;20524;6842;278955;-91
2022/10/16 04:21:52;;;;;;;1.30;1.20;;;18.20;61.20;;;;;;20776;6842;118932;-91
2022/10/16 04:24:17;;;;;;;1.23;1.23;;;18.20;61.10;;;;;;20763;6847;117247;-92
2022/10/16 04:26:43;;;;;;;1.30;1.20;;;17.90;61.80;;;;;;20707;6847;120795;-92
2022/10/16 04:29:09;;;;;;;2.50;1.47;;;17.70;62.50;;;;;;20600;6831;278947;-92
2022/10/16 04:31:35;;;;;;;5.65;1.90;;;17.90;62.30;;;;;;20814;6824;117707;-92
2022/10/16 04:34:00;;;;;;;2.23;1.93;;;17.90;62.30;;;;;;20778;6836;121979;-92
2022/10/16 04:36:26;;;;;;;2.23;2.00;;;17.70;62.80;;;;;;20748;6842;119525;-92
2022/10/16 04:38:52;;;;;;;1.98;1.87;;;17.50;63.20;;;;;;20671;6870;118618;-92
2022/10/16 04:41:19;;;;;;;5.30;2.28;;;17.40;63.80;;;;;;20762;6848;116977;-92
2022/10/16 04:43:44;;;;;;;1.97;1.87;;;17.30;64.30;;;;;;20780;6831;117291;-93
2022/10/16 04:46:10;;;;;;;3.33;3.03;;;17.20;64.50;;;;;;20611;6823;308467;-92
2022/10/16 04:48:36;;;;;;;4.20;3.85;;;17.80;63.20;;;;;;20606;6823;277724;-92
2022/10/16 04:51:02;;;;;;;3.37;2.80;;;17.80;63.10;;;;;;20604;6821;278001;-92
2022/10/16 04:53:27;;;;;;;2.10;1.90;;;18.10;62.20;;;;;;20837;6821;117544;-92
2022/10/16 04:55:53;;;;;;;1.90;1.80;;;18.00;62.30;;;;;;20835;6821;117283;-92
2022/10/16 04:58:18;;;;;;;1.98;1.67;;;17.80;62.90;;;;;;20621;6819;307865;-91
2022/10/16 05:00:44;;;;;;;3.03;1.60;;;17.90;62.50;;;;;;20622;6820;315824;-92
2022/10/16 05:03:09;;;;;;;1.90;1.37;;;18.20;61.80;;;;;;20838;6820;124637;-92
2022/10/16 05:05:35;;;;;;;1.97;1.50;;;18.10;61.90;;;;;;20623;6821;307933;-92
2022/10/16 05:08:01;;;;;;;1.48;1.23;;;18.00;62.10;;;;;;20839;6821;120415;-91
2022/10/16 05:10:27;;;;;;;1.50;1.40;;;18.00;61.80;;;;;;20839;6821;117565;-92
2022/10/16 05:12:53;;;;;;;2.22;1.48;;;17.80;62.50;;;;;;20617;6821;282445;-92
2022/10/16 05:15:18;;;;;;;1.60;1.50;;;17.90;62.10;;;;;;20641;6821;310557;-92
2022/10/16 05:17:44;;;;;;;1.30;1.30;;;18.20;61.30;;;;;;20845;6821;119952;-92
2022/10/16 05:20:09;;;;;;;1.93;1.20;;;18.10;61.40;;;;;;20840;6821;118436;-92
2022/10/16 05:22:35;;;;;;;2.30;1.35;;;17.80;62.00;;;;;;20630;6821;308064;-92
2022/10/16 05:25:00;;;;;;;2.07;1.50;;;17.90;61.90;;;;;;20821;6821;119251;-92
2022/10/16 05:27:26;;;;;;;2.73;1.50;;;17.90;62.10;;;;;;20620;6821;307570;-92
2022/10/16 05:29:51;;;;;;;2.07;1.30;;;18.00;61.70;;;;;;20832;6821;119914;-93
2022/10/16 05:32:17;;;;;;;1.30;1.30;;;17.90;61.90;;;;;;20837;6821;120297;-92
2022/10/16 05:34:43;;;;;;;3.62;1.50;;;17.60;62.40;;;;;;20623;6821;279700;-92
2022/10/16 05:37:08;;;;;;;1.67;1.42;;;17.70;62.20;;;;;;20604;6821;307695;-92
2022/10/16 05:39:34;;;;;;;2.70;1.37;;;18.00;61.50;;;;;;20833;6821;119847;-91
2022/10/16 05:41:59;;;;;;;1.90;1.80;;;17.90;61.70;;;;;;20835;6821;117206;-91
2022/10/16 05:44:25;;;;;;;10.50;9.57;;;17.60;62.20;;;;;;20629;6821;278584;-91
2022/10/16 05:46:50;;;;;;;7.65;6.95;;;17.70;62.10;;;;;;20601;6821;310303;-91
2022/10/16 05:49:16;;;;;;;3.73;3.43;;;17.90;61.40;;;;;;20837;6821;118449;-92
2022/10/16 05:51:41;;;;;;;2.12;1.92;;;17.80;61.60;;;;;;20631;6821;336772;-91
2022/10/16 05:54:07;;;;;;;2.50;1.70;;;17.80;61.50;;;;;;20848;6821;119266;-91
2022/10/16 05:56:33;;;;;;;1.80;1.70;;;17.70;61.80;;;;;;20626;6821;311691;-92
2022/10/16 05:58:59;;;;;;;2.30;1.80;;;17.70;61.80;;;;;;20619;6821;308029;-91
2022/10/16 06:01:24;;;;;;;1.87;1.73;;;17.90;61.30;;;;;;20631;6821;309801;-92
2022/10/16 06:03:50;;;;;;;1.80;1.50;;;18.10;61.00;;;;;;20624;6821;308012;-93
2022/10/16 06:06:20;;;;;;;3.90;2.47;;;18.30;60.50;;;;;;20636;6821;278077;-92
2022/10/16 06:08:48;;;;;;;2.90;2.30;;;18.50;60.60;;;;;;20624;6819;327190;-92
2022/10/16 06:11:13;;;;;;;1.83;1.40;;;18.60;60.10;;;;;;20683;6829;120136;-96
2022/10/16 06:13:41;;;;;;;2.60;1.50;;;18.40;60.60;;;;;;20593;6829;341889;-96
2022/10/16 06:16:05;;;;;;;1.37;1.30;;;18.40;60.70;;;;;;20827;6829;117475;-96
2022/10/16 06:18:30;;;;;;;2.60;1.30;;;18.20;61.20;;;;;;20832;6829;117189;-95
2022/10/16 06:20:56;;;;;;;2.40;1.50;;;17.90;62.00;;;;;;20596;6829;337053;-95
2022/10/16 06:23:22;;;;;;;1.80;1.30;;;18.00;62.00;;;;;;20833;6829;119286;-95
2022/10/16 06:25:48;;;;;;;1.40;1.30;;;17.80;62.60;;;;;;20832;6829;120196;-95
2022/10/16 06:28:14;;;;;;;2.80;1.37;;;17.80;62.60;;;;;;20833;6829;117498;-96
2022/10/16 06:30:40;;;;;;;1.33;1.23;;;17.70;63.20;;;;;;20872;6816;116325;-95
2022/10/16 06:33:05;;;;;;;2.00;1.75;;;17.60;63.70;;;;;;20563;6837;307051;-96
2022/10/16 06:35:31;;;;;;;3.20;1.70;;;17.80;62.90;;;;;;20829;6834;119259;-96
2022/10/16 06:37:56;;;;;;;2.17;1.70;;;17.90;63.00;;;;;;20688;6826;276500;-95
2022/10/16 06:40:22;;;;;;;3.45;1.83;;;18.10;62.70;;;;;;20966;6814;67790;-95
2022/10/16 06:42:48;;;;;;;2.03;1.87;;;18.10;62.80;;;;;;20950;6814;116385;-95
2022/10/16 06:45:16;;;;;;;1.77;1.65;;;18.00;63.40;;;;;;20945;6814;120411;-96
2022/10/16 06:48:22;;;;;;;2.50;1.60;;;18.00;64.00;;;;;;20916;6816;117464;-96
2022/10/16 06:51:14;;;;;;;3.30;1.33;;;17.90;64.40;;;;;;20772;6737;117195;-90
2022/10/16 06:53:49;;;;;;;6.57;1.60;;;17.90;65.00;;;;;;20565;6748;278035;-86
2022/10/16 06:56:25;;;;;;;5.10;1.60;;;18.30;64.10;;;;;;20594;6748;299975;-88
2022/10/16 06:59:01;;;;;;;5.70;1.40;;;18.80;62.20;;;;;;20893;6738;141796;-86
2022/10/16 07:01:38;;;;;;;8.40;1.67;;;18.80;62.10;;;;;;20834;6763;118304;-85
2022/10/16 07:04:14;;;;;;;9.37;1.60;;;18.70;62.80;;;;;;20932;6727;118857;-86
2022/10/16 07:06:51;;;;;;;10.43;1.70;;;18.40;63.80;;;;;;20849;6727;119802;-86
2022/10/16 07:09:26;;;;;;;9.47;1.87;;;18.40;63.80;;;;;;20708;6736;310493;-86
2022/10/16 07:12:03;;;;;;;7.03;1.67;;;18.90;61.60;;;;;;20671;6749;311882;-87
2022/10/16 07:14:40;;;;;;;8.33;1.90;;;18.90;61.60;;;;;;20576;6747;307457;-84
2022/10/16 07:17:15;;;;;;;6.00;1.63;;;19.30;61.00;;;;;;20657;6776;117882;-85
2022/10/16 07:19:53;;;;;;;4.53;1.70;;;19.10;61.20;;;;;;20823;6754;121291;-85
2022/10/16 07:22:26;;;;;;;8.23;1.87;;;18.90;61.90;;;;;;20925;6740;118174;-85
2022/10/16 07:25:03;;;;;;;4.97;1.83;;;18.70;62.60;;;;;;20913;6727;116990;-86
2022/10/16 07:27:39;;;;;;;3.03;1.73;;;18.50;63.10;;;;;;20553;6715;314114;-85
2022/10/16 07:30:15;;;;;;;6.63;1.83;;;19.10;61.30;;;;;;20671;6730;293523;-85
2022/10/16 07:32:52;;;;;;;4.33;1.73;;;19.00;61.20;;;;;;20636;6745;305798;-87
2022/10/16 07:35:28;;;;;;;2.60;1.93;;;19.30;60.60;;;;;;20725;6725;276708;-85
2022/10/16 07:38:03;;;;;;;3.93;2.00;;;19.60;59.80;;;;;;20923;6721;118219;-85
2022/10/16 07:40:39;;;;;;;2.97;1.70;;;19.40;60.20;;;;;;20897;6736;117052;-86
2022/10/16 07:43:14;;;;;;;6.57;1.77;;;19.10;61.10;;;;;;20636;6750;298644;-88
2022/10/16 07:45:50;;;;;;;5.03;1.50;;;19.20;60.90;;;;;;20808;6778;118126;-87
2022/10/16 07:48:26;;;;;;;1.90;1.30;;;19.00;61.90;;;;;;20942;6722;121584;-83
2022/10/16 07:51:02;;;;;;;2.97;1.57;;;19.00;61.90;;;;;;20625;6745;291931;-85
2022/10/16 07:53:38;;;;;;;1.67;1.57;;;19.20;61.30;;;;;;20930;6726;116934;-83
2022/10/16 07:56:14;;;;;;;3.40;1.67;;;19.20;61.20;;;;;;20559;6760;310334;-84
2022/10/16 07:58:50;;;;;;;2.60;1.70;;;19.50;60.80;;;;;;20817;6759;117495;-86
2022/10/16 08:01:25;;;;;;;4.23;1.70;;;19.50;61.10;;;;;;20601;6744;310238;-90
2022/10/16 08:04:01;;;;;;;6.83;1.80;;;20.00;60.00;;;;;;20693;6729;305921;-88
2022/10/16 08:06:38;;;;;;;2.93;1.60;;;20.00;60.00;;;;;;20566;6744;302920;-85
2022/10/16 08:09:14;;;;;;;2.60;1.40;;;20.30;59.20;;;;;;20866;6792;117208;-88
2022/10/16 08:11:59;;;;;;;;;;;;;;;;;;;;;
2022/10/16 08:14:25;;;;;;;6.95;1.90;;;19.90;60.30;;;;;;20746;6730;305735;-85
2022/10/16 08:17:01;;;;;;;5.53;1.63;;;20.00;60.30;;;;;;20783;6730;118228;-87
2022/10/16 08:19:36;;;;;;;8.47;1.83;;;19.90;60.60;;;;;;20658;6720;276176;-88
2022/10/16 08:22:12;;;;;;;11.53;1.93;;;20.00;60.70;;;;;;20927;6729;116796;-84
2022/10/16 08:24:47;;;;;;;6.70;1.80;;;20.00;61.10;;;;;;20646;6745;305991;-85
2022/10/16 08:27:23;;;;;;;5.17;1.93;;;20.10;61.00;;;;;;20735;6745;118189;-87
2022/10/16 08:30:01;;;;;;;4.60;1.70;;;20.10;61.30;;;;;;20566;6774;307246;-87
2022/10/16 08:32:35;;;;;;;3.77;1.20;;;20.30;60.90;;;;;;20799;6766;118816;-85
2022/10/16 08:35:15;;;;;;;4.30;1.50;;;20.30;61.30;;;;;;20818;6756;118585;-86
2022/10/16 08:37:48;;;;;;;4.47;1.47;;;20.30;61.90;;;;;;20735;6754;117131;-90
2022/10/16 08:40:34;;;;;;;;;;;;;;;;;;;;;
2022/10/16 08:43:02;;;;;;;3.83;1.50;;;20.30;62.30;;;;;;20585;6731;305903;-94
2022/10/16 08:45:48;;;;;;;7.50;1.60;;;20.60;59.80;;;;;;20851;6733;117371;-94
2022/10/16 08:48:30;;;;;;;8.47;2.03;;;20.60;60.40;;;;;;20837;6767;117598;-88
2022/10/16 08:51:06;;;;;;;2.80;1.30;;;20.60;60.40;;;;;;20918;6746;118801;-88
2022/10/16 08:53:49;;;;;;;3.93;1.60;;;20.50;60.90;;;;;;20867;6761;117191;-87
2022/10/16 08:56:24;;;;;;;2.27;1.43;;;20.40;61.20;;;;;;20797;6752;117135;-88
2022/10/16 08:59:00;;;;;;;4.47;1.67;;;20.30;61.50;;;;;;20817;6746;117131;-88
2022/10/16 09:01:39;;;;;;;1.47;1.40;;;20.20;61.70;;;;;;20774;6776;117359;-86
2022/10/16 09:04:14;;;;;;;2.90;1.60;;;20.20;62.00;;;;;;20629;6763;335106;-86
2022/10/16 09:07:06;;;;;;;4.10;1.37;;;20.50;59.80;;;;;;20771;6738;117913;-86
2022/10/16 09:10:01;;;;;;;4.13;1.60;;;20.60;60.00;;;;;;20860;6758;116963;-88
2022/10/16 09:12:37;;;;;;;3.30;1.60;;;20.50;60.30;;;;;;20885;6741;117425;-88
2022/10/16 09:15:29;;;;;;;2.03;1.50;;;20.40;60.50;;;;;;20882;6741;117356;-87
2022/10/16 09:18:31;;;;;;;2.30;1.40;;;20.30;60.80;;;;;;20854;6743;117011;-89
2022/10/16 09:21:09;;;;;;;2.50;1.70;;;20.30;61.30;;;;;;20630;6743;310587;-87
2022/10/16 09:23:45;;;;;;;2.70;1.53;;;20.70;59.00;;;;;;20772;6746;117019;-87
2022/10/16 09:26:21;;;;;;;2.70;1.43;;;21.00;59.40;;;;;;20581;6746;291783;-90
2022/10/16 09:28:56;;;;;;;2.00;1.30;;;21.40;57.90;;;;;;20840;6746;118861;-88
2022/10/16 09:31:32;;;;;;;2.00;1.30;;;21.60;58.30;;;;;;20840;6755;117275;-87
2022/10/16 09:34:14;;;;;;;4.60;1.50;;;21.70;58.40;;;;;;20804;6760;117139;-91
2022/10/16 09:36:50;;;;;;;2.73;1.50;;;21.90;59.00;;;;;;20571;6813;117598;-88
2022/10/16 09:39:26;;;;;;;4.93;1.77;;;21.80;58.90;;;;;;20608;6748;306743;-86
2022/10/16 09:42:01;;;;;;;2.37;1.50;;;22.20;55.90;;;;;;20909;6738;117357;-87
2022/10/16 09:44:38;;;;;;;3.57;1.40;;;22.30;56.30;;;;;;20676;6752;307153;-90
2022/10/16 09:47:17;;;;;;;2.93;1.60;;;22.50;55.50;;;;;;20735;6750;118384;-89
2022/10/16 09:50:01;;;;;;;4.73;1.80;;;22.60;55.90;;;;;;20756;6706;277179;-90
2022/10/16 09:52:35;;;;;;;2.10;1.60;;;22.80;54.40;;;;;;20867;6735;120172;-90
2022/10/16 09:55:13;;;;;;;1.90;1.43;;;22.70;55.60;;;;;;20677;6734;310202;-85
2022/10/16 09:57:52;;;;;;;3.80;1.73;;;22.80;54.10;;;;;;20715;6747;118748;-87
2022/10/16 10:00:27;;;;;;;4.10;1.30;;;22.70;54.90;;;;;;20814;6754;117215;-86
2022/10/16 10:03:03;;;;;;;3.50;1.60;;;22.40;55.70;;;;;;20675;6732;281505;-88
2022/10/16 10:05:40;;;;;;;1.80;1.70;;;22.50;55.40;;;;;;20639;6749;302832;-87
2022/10/16 10:08:17;;;;;;;4.33;1.77;;;22.70;55.70;;;;;;20724;6792;117256;-87
2022/10/16 10:10:54;;;;;;;2.72;1.60;;;22.60;56.10;;;;;;20500;6785;308244;-88
2022/10/16 10:13:28;;;;;;;2.40;1.60;;;22.60;57.40;;;;;;20732;6788;117865;-89
2022/10/16 10:16:04;;;;;;;2.40;1.80;;;22.60;56.50;;;;;;20552;6771;286356;-89
2022/10/16 10:18:40;;;;;;;4.10;1.80;;;22.90;56.50;;;;;;20674;6741;282737;-89
2022/10/16 10:21:18;;;;;;;4.05;1.60;;;23.60;54.10;;;;;;20663;6736;336894;-87
2022/10/16 10:23:56;;;;;;;1.40;1.30;;;23.60;54.10;;;;;;20861;6747;117521;-87
2022/10/16 10:26:30;;;;;;;2.05;1.50;;;23.60;54.50;;;;;;20621;6728;281186;-87
2022/10/16 10:29:19;;;;;;;4.77;1.50;;;23.70;52.80;;;;;;20822;6750;118809;-89
2022/10/16 10:32:31;;;;;;;5.03;1.40;;;23.70;53.50;;;;;;20792;6820;118191;-85
2022/10/16 10:35:00;;;;;;;2.57;1.33;;;23.40;54.00;;;;;;20626;6749;309688;-84
2022/10/16 10:37:56;;;;;;;4.18;1.65;;;23.50;52.80;;;;;;20444;6790;338243;-85
2022/10/16 10:40:45;;;;;;;2.07;1.30;;;23.70;52.60;;;;;;20896;6734;117005;-84
2022/10/16 10:43:27;;;;;;;1.97;1.30;;;23.70;53.20;;;;;;20926;6726;117032;-85
2022/10/16 10:46:03;;;;;;;1.83;1.33;;;23.40;53.90;;;;;;20871;6734;116042;-87
2022/10/16 10:48:51;;;;;;;1.33;1.23;;;23.30;54.70;;;;;;20842;6793;118208;-85
2022/10/16 10:51:50;;;;;;;1.58;1.25;;;23.20;55.30;;;;;;20579;6751;309114;-90
2022/10/16 10:54:53;;;;;;;2.30;1.27;;;23.70;53.50;;;;;;20880;6733;117217;-86
2022/10/16 10:57:28;;;;;;;2.20;1.43;;;23.70;53.50;;;;;;20787;6735;118903;-89
2022/10/16 11:00:10;;;;;;;3.77;1.63;;;23.70;53.80;;;;;;20669;6738;306418;-86
2022/10/16 11:03:00;;;;;;;1.70;1.60;;;24.00;52.20;;;;;;20921;6724;118128;-88
2022/10/16 11:05:43;;;;;;;1.77;1.40;;;24.40;50.80;;;;;;20673;6732;279906;-88
2022/10/16 11:08:18;;;;;;;2.13;1.40;;;24.30;50.80;;;;;;20941;6724;116841;-87
2022/10/16 11:10:54;;;;;;;2.37;1.53;;;24.40;51.20;;;;;;20907;6726;118025;-91
2022/10/16 11:13:30;;;;;;;1.40;1.30;;;24.30;50.00;;;;;;20627;6751;282161;-92
2022/10/16 11:16:28;;;;;;;1.40;1.30;;;24.40;50.10;;;;;;20771;6760;119176;-90
2022/10/16 11:19:13;;;;;;;2.83;1.30;;;24.50;51.70;;;;;;20728;6828;124037;-88
2022/10/16 11:22:07;;;;;;;1.40;1.30;;;24.40;51.30;;;;;;20570;6814;121153;-90
2022/10/16 11:24:53;;;;;;;4.77;1.40;;;24.70;48.60;;;;;;19526;7119;295561;-90
2022/10/16 11:27:41;;;;;;;2.00;1.42;;;24.70;48.50;;;;;;19429;7151;291469;-89
2022/10/16 11:30:20;;;;;;;3.10;1.40;;;25.20;47.50;;;;;;20292;6783;120143;-90
2022/10/16 11:33:06;;;;;;;3.83;1.40;;;25.30;48.20;;;;;;20646;6739;303269;-89
2022/10/16 11:35:55;;;;;;;4.00;1.20;;;25.50;46.90;;;;;;20868;6741;117901;-89
2022/10/16 11:38:41;;;;;;;2.10;1.23;;;25.40;48.50;;;;;;20907;6736;117055;-87
2022/10/16 11:41:27;;;;;;;1.95;1.40;;;25.40;48.40;;;;;;20662;6737;309520;-88
2022/10/16 11:44:22;;;;;;;1.50;1.03;;;25.60;46.30;;;;;;20900;6736;117390;-88
2022/10/16 11:47:17;;;;;;;2.28;1.27;;;25.60;46.90;;;;;;19992;6830;306335;-90
2022/10/16 11:49:56;;;;;;;7.20;1.43;;;25.70;44.80;;;;;;20892;6747;119888;-93
2022/10/16 11:52:46;;;;;;;1.87;1.47;;;25.60;45.90;;;;;;20982;6746;119541;-89
2022/10/16 11:55:26;;;;;;;1.97;1.73;;;25.30;44.00;;;;;;20633;6739;299033;-92
2022/10/16 11:58:02;;;;;;;1.27;1.27;;;25.30;44.00;;;;;;20773;6705;305600;-89
2022/10/16 12:00:43;;;;;;;1.37;1.33;;;25.50;43.30;;;;;;20860;6765;121701;-94
2022/10/16 12:03:39;;;;;;;;;;;;;;;;;;;;;
2022/10/16 12:06:20;;;;;;;1.62;1.30;;;25.00;44.70;;;;;;20863;6530;341749;-88
2022/10/16 12:08:44;;;;;;;1.67;1.20;;;25.20;44.80;;;;;;20417;6874;279543;-87
2022/10/16 12:11:26;;;;;;;2.33;1.27;;;25.50;43.90;;;;;;20627;6876;118684;-90
2022/10/16 12:13:53;;;;;;;3.67;1.37;;;25.50;44.70;;;;;;20416;6876;317335;-89
2022/10/16 12:16:23;;;;;;;3.25;1.40;;;25.60;44.70;;;;;;20081;6876;279621;-88
2022/10/16 12:18:49;;;;;;;4.60;1.40;;;25.80;44.10;;;;;;20359;6893;280910;-90
2022/10/16 12:21:15;;;;;;;1.30;1.20;;;26.00;42.80;;;;;;20627;6880;117917;-87
2022/10/16 12:23:51;;;;;;;1.60;1.37;;;26.00;43.60;;;;;;20402;6880;309790;-88
2022/10/16 12:26:26;;;;;;;1.40;1.37;;;26.00;43.50;;;;;;20583;6878;117777;-87
2022/10/16 12:28:53;;;;;;;2.10;1.40;;;25.90;44.30;;;;;;20338;6895;309759;-87
2022/10/16 12:31:19;;;;;;;2.70;1.50;;;26.00;42.60;;;;;;20572;6895;117921;-88
2022/10/16 12:33:59;;;;;;;1.48;1.37;;;25.70;44.50;;;;;;20546;6895;117601;-88
2022/10/16 12:36:32;;;;;;;4.70;1.40;;;25.50;45.10;;;;;;20543;6898;117815;-87
2022/10/16 12:39:01;;;;;;;1.50;1.30;;;25.50;45.10;;;;;;20341;6891;313588;-86
2022/10/16 12:41:30;;;;;;;1.50;1.40;;;25.70;43.60;;;;;;20572;6892;119457;-86
2022/10/16 12:43:56;;;;;;;1.30;1.20;;;25.70;44.50;;;;;;20567;6893;117899;-87
2022/10/16 12:46:32;;;;;;;1.70;1.50;;;25.80;42.50;;;;;;20360;6893;339861;-86
2022/10/16 12:49:07;;;;;;;2.20;1.30;;;26.10;42.10;;;;;;20340;6884;311135;-86
2022/10/16 12:51:35;;;;;;;2.63;1.47;;;26.10;42.10;;;;;;20383;6875;314924;-86
2022/10/16 12:54:03;;;;;;;1.40;1.23;;;26.40;42.40;;;;;;20602;6879;119444;-89
2022/10/16 12:56:56;;;;;;;1.57;1.47;;;26.30;42.80;;;;;;20612;6879;117414;-86
2022/10/16 12:59:28;;;;;;;1.97;1.40;;;26.10;43.30;;;;;;20404;6879;312549;-86
2022/10/16 13:02:07;;;;;;;2.10;1.20;;;26.20;41.60;;;;;;20644;6879;68592;-89
2022/10/16 13:04:39;;;;;;;2.77;1.40;;;26.20;43.00;;;;;;20465;6879;117393;-88
2022/10/16 13:07:31;;;;;;;1.52;1.42;;;26.10;44.00;;;;;;20301;6879;324045;-88
2022/10/16 13:10:00;;;;;;;1.30;1.23;;;26.20;41.70;;;;;;20653;6875;117367;-86
2022/10/16 13:12:42;;;;;;;2.13;1.57;;;26.30;43.20;;;;;;20565;6890;117423;-91
2022/10/16 13:15:07;;;;;;;1.57;1.40;;;26.10;44.10;;;;;;19588;6875;309910;-87
2022/10/16 13:17:43;;;;;;;2.10;1.70;;;26.30;42.30;;;;;;20617;6874;121115;-86
2022/10/16 13:20:26;;;;;;;1.60;1.50;;;26.10;44.20;;;;;;20637;6875;118663;-89
2022/10/16 13:22:53;;;;;;;2.60;1.50;;;26.10;44.20;;;;;;20399;6875;283726;-87